sensor_id;sensor_type;location;lat;lon;timestamp;pressure;altitude;pressure_sealevel;temperature;humidity
35655;BME280;21773;50.010;19.972;2024-03-06T00:04:16;98792.66;;;7.17;100.00
35655;BME280;21773;50.010;19.972;2024-03-06T00:07:21;98704.13;;;6.84;100.00
35655;BME280;21773;50.010;19.972;2024-03-06T00:10:24;98867.06;;;7.75;100.00
35655;BME280;21773;50.010;19.972;2024-03-06T00:13:27;98735.75;;;6.61;100.00
35655;BME280;21773;50.010;19.972;2024-03-06T00:16:31;98865.72;;;7.32;100.00
35655;BME280;21773;50.010;19.972;2024-03-06T00:19:36;98887.88;;;7.67;100.00
35655;BME280;21773;50.010;19.972;2024-03-06T00:22:39;98872.19;;;7.57;100.00
35655;BME280;21773;50.010;19.972;2024-03-06T00:25:43;98742.16;;;6.66;100.00
35655;BME280;21773;50.010;19.972;2024-03-06T00:28:46;98845.66;;;7.21;100.00
35655;BME280;21773;50.010;19.972;2024-03-06T00:31:49;98858.63;;;7.11;100.00
35655;BME280;21773;50.010;19.972;2024-03-06T00:34:54;98707.63;;;6.37;100.00
35655;BME280;21773;50.010;19.972;2024-03-06T00:37:58;98914.22;;;7.37;100.00
35655;BME280;21773;50.010;19.972;2024-03-06T00:41:04;98910.75;;;7.56;100.00
35655;BME280;21773;50.010;19.972;2024-03-06T00:44:08;98678.78;;;5.91;100.00
35655;BME280;21773;50.010;19.972;2024-03-06T00:47:11;98887.53;;;7.29;100.00
35655;BME280;21773;50.010;19.972;2024-03-06T00:50:16;98916.91;;;7.44;100.00
35655;BME280;21773;50.010;19.972;2024-03-06T00:53:23;98928.44;;;7.44;100.00
35655;BME280;21773;50.010;19.972;2024-03-06T00:56:26;98928.72;;;7.15;100.00
35655;BME280;21773;50.010;19.972;2024-03-06T00:59:29;98775.28;;;6.18;100.00
35655;BME280;21773;50.010;19.972;2024-03-06T01:02:33;98687.09;;;5.75;100.00
35655;BME280;21773;50.010;19.972;2024-03-06T01:05:37;98695.72;;;5.77;100.00
35655;BME280;21773;50.010;19.972;2024-03-06T01:08:41;98911.16;;;7.06;100.00
35655;BME280;21773;50.010;19.972;2024-03-06T01:11:44;98882.22;;;6.94;100.00
35655;BME280;21773;50.010;19.972;2024-03-06T01:14:49;98905.81;;;7.06;100.00
35655;BME280;21773;50.010;19.972;2024-03-06T01:17:52;98921.78;;;7.27;100.00
35655;BME280;21773;50.010;19.972;2024-03-06T01:20:57;98680.78;;;5.55;100.00
35655;BME280;21773;50.010;19.972;2024-03-06T01:24:00;98885.28;;;6.85;100.00
35655;BME280;21773;50.010;19.972;2024-03-06T01:27:03;98914.97;;;7.24;100.00
35655;BME280;21773;50.010;19.972;2024-03-06T01:30:07;98750.22;;;6.25;100.00
35655;BME280;21773;50.010;19.972;2024-03-06T01:33:11;98712.47;;;5.86;100.00
35655;BME280;21773;50.010;19.972;2024-03-06T01:36:16;98910.94;;;7.01;100.00
35655;BME280;21773;50.010;19.972;2024-03-06T01:39:19;98906.72;;;7.26;100.00
35655;BME280;21773;50.010;19.972;2024-03-06T01:42:23;98754.66;;;6.12;100.00
35655;BME280;21773;50.010;19.972;2024-03-06T01:45:26;98924.63;;;7.19;100.00
35655;BME280;21773;50.010;19.972;2024-03-06T01:48:30;98879.91;;;6.78;100.00
35655;BME280;21773;50.010;19.972;2024-03-06T01:52:01;98912.91;;;6.85;100.00
35655;BME280;21773;50.010;19.972;2024-03-06T01:55:33;98887.06;;;6.71;100.00
35655;BME280;21773;50.010;19.972;2024-03-06T01:58:39;98895.50;;;6.68;100.00
35655;BME280;21773;50.010;19.972;2024-03-06T02:02:05;98931.28;;;6.88;100.00
35655;BME280;21773;50.010;19.972;2024-03-06T02:05:10;98934.56;;;6.84;100.00
35655;BME280;21773;50.010;19.972;2024-03-06T02:08:14;98937.63;;;6.81;100.00
35655;BME280;21773;50.010;19.972;2024-03-06T02:11:18;98923.38;;;6.80;100.00
35655;BME280;21773;50.010;19.972;2024-03-06T02:14:21;98932.25;;;6.81;100.00
35655;BME280;21773;50.010;19.972;2024-03-06T02:17:24;98928.75;;;6.80;100.00
35655;BME280;21773;50.010;19.972;2024-03-06T02:20:29;98931.19;;;6.75;100.00
35655;BME280;21773;50.010;19.972;2024-03-06T02:23:32;98905.94;;;6.57;100.00
35655;BME280;21773;50.010;19.972;2024-03-06T02:26:35;98921.22;;;6.63;100.00
35655;BME280;21773;50.010;19.972;2024-03-06T02:29:38;98934.19;;;6.59;100.00
35655;BME280;21773;50.010;19.972;2024-03-06T02:32:41;98939.91;;;6.56;100.00
35655;BME280;21773;50.010;19.972;2024-03-06T02:35:47;98931.63;;;6.51;100.00
35655;BME280;21773;50.010;19.972;2024-03-06T02:38:50;98936.56;;;6.47;100.00
35655;BME280;21773;50.010;19.972;2024-03-06T02:41:53;98937.97;;;6.43;100.00
35655;BME280;21773;50.010;19.972;2024-03-06T02:44:56;98936.50;;;6.41;100.00
35655;BME280;21773;50.010;19.972;2024-03-06T02:47:59;98941.66;;;6.42;100.00
35655;BME280;21773;50.010;19.972;2024-03-06T02:51:04;98948.00;;;6.35;100.00
35655;BME280;21773;50.010;19.972;2024-03-06T02:54:07;98947.78;;;6.36;100.00
35655;BME280;21773;50.010;19.972;2024-03-06T02:57:11;98957.88;;;6.34;100.00
35655;BME280;21773;50.010;19.972;2024-03-06T03:00:15;98939.66;;;6.23;100.00
35655;BME280;21773;50.010;19.972;2024-03-06T03:03:18;98959.06;;;6.32;100.00
35655;BME280;21773;50.010;19.972;2024-03-06T03:06:23;98959.31;;;6.37;100.00
35655;BME280;21773;50.010;19.972;2024-03-06T03:09:26;98927.69;;;6.19;100.00
35655;BME280;21773;50.010;19.972;2024-03-06T03:12:30;98966.19;;;6.46;100.00
35655;BME280;21773;50.010;19.972;2024-03-06T03:15:33;98966.44;;;6.51;100.00
35655;BME280;21773;50.010;19.972;2024-03-06T03:18:36;98966.69;;;6.56;100.00
35655;BME280;21773;50.010;19.972;2024-03-06T03:21:43;98965.69;;;6.57;100.00
35655;BME280;21773;50.010;19.972;2024-03-06T03:24:46;98971.44;;;6.54;100.00
35655;BME280;21773;50.010;19.972;2024-03-06T03:27:50;98981.69;;;6.50;100.00
35655;BME280;21773;50.010;19.972;2024-03-06T03:30:53;98979.09;;;6.36;100.00
35655;BME280;21773;50.010;19.972;2024-03-06T03:33:56;98979.63;;;6.25;100.00
35655;BME280;21773;50.010;19.972;2024-03-06T03:37:01;98981.66;;;6.23;100.00
35655;BME280;21773;50.010;19.972;2024-03-06T03:40:06;98982.75;;;6.28;100.00
35655;BME280;21773;50.010;19.972;2024-03-06T03:43:09;98982.81;;;6.35;100.00
35655;BME280;21773;50.010;19.972;2024-03-06T03:46:13;98968.63;;;6.41;100.00
35655;BME280;21773;50.010;19.972;2024-03-06T03:49:16;98978.91;;;6.37;100.00
35655;BME280;21773;50.010;19.972;2024-03-06T03:52:20;98972.97;;;6.42;100.00
35655;BME280;21773;50.010;19.972;2024-03-06T03:55:24;98979.00;;;6.50;100.00
35655;BME280;21773;50.010;19.972;2024-03-06T03:58:27;98974.72;;;6.56;100.00
35655;BME280;21773;50.010;19.972;2024-03-06T04:01:30;98975.63;;;6.63;100.00
35655;BME280;21773;50.010;19.972;2024-03-06T04:04:34;98986.97;;;6.65;100.00
35655;BME280;21773;50.010;19.972;2024-03-06T04:07:38;98978.56;;;6.68;100.00
35655;BME280;21773;50.010;19.972;2024-03-06T04:10:42;98985.16;;;6.72;100.00
35655;BME280;21773;50.010;19.972;2024-03-06T04:13:47;98974.88;;;6.76;100.00
35655;BME280;21773;50.010;19.972;2024-03-06T04:16:50;98982.69;;;6.71;100.00
35655;BME280;21773;50.010;19.972;2024-03-06T04:19:53;98987.22;;;6.70;100.00
35655;BME280;21773;50.010;19.972;2024-03-06T04:22:58;98980.78;;;6.65;100.00
35655;BME280;21773;50.010;19.972;2024-03-06T04:26:02;98978.91;;;6.65;100.00
35655;BME280;21773;50.010;19.972;2024-03-06T04:29:05;98988.03;;;6.71;100.00
35655;BME280;21773;50.010;19.972;2024-03-06T04:32:08;98984.16;;;6.73;100.00
35655;BME280;21773;50.010;19.972;2024-03-06T04:35:11;98995.31;;;6.77;100.00
35655;BME280;21773;50.010;19.972;2024-03-06T04:38:16;98999.44;;;6.79;100.00
35655;BME280;21773;50.010;19.972;2024-03-06T04:41:19;98996.13;;;6.77;100.00
35655;BME280;21773;50.010;19.972;2024-03-06T04:44:23;98989.53;;;6.80;100.00
35655;BME280;21773;50.010;19.972;2024-03-06T04:47:26;98975.22;;;6.66;100.00
35655;BME280;21773;50.010;19.972;2024-03-06T04:50:31;98999.44;;;6.79;100.00
35655;BME280;21773;50.010;19.972;2024-03-06T04:53:36;99002.31;;;6.78;100.00
35655;BME280;21773;50.010;19.972;2024-03-06T04:56:39;98999.66;;;6.78;100.00
35655;BME280;21773;50.010;19.972;2024-03-06T04:59:42;99001.50;;;6.77;100.00
35655;BME280;21773;50.010;19.972;2024-03-06T05:02:45;99008.53;;;6.78;100.00
35655;BME280;21773;50.010;19.972;2024-03-06T05:06:05;99007.03;;;6.76;100.00
35655;BME280;21773;50.010;19.972;2024-03-06T05:09:27;99010.16;;;6.79;100.00
35655;BME280;21773;50.010;19.972;2024-03-06T05:12:48;99004.78;;;6.79;100.00
35655;BME280;21773;50.010;19.972;2024-03-06T05:16:09;99014.31;;;6.82;100.00
35655;BME280;21773;50.010;19.972;2024-03-06T05:19:29;99001.25;;;6.72;100.00
35655;BME280;21773;50.010;19.972;2024-03-06T05:22:51;99015.13;;;6.82;100.00
35655;BME280;21773;50.010;19.972;2024-03-06T05:26:13;99014.31;;;6.82;100.00
35655;BME280;21773;50.010;19.972;2024-03-06T05:29:33;99013.91;;;6.85;100.00
35655;BME280;21773;50.010;19.972;2024-03-06T05:32:55;99019.91;;;6.87;100.00
35655;BME280;21773;50.010;19.972;2024-03-06T05:36:16;99008.53;;;6.78;100.00
35655;BME280;21773;50.010;19.972;2024-03-06T05:39:37;99019.50;;;6.90;100.00
35655;BME280;21773;50.010;19.972;2024-03-06T05:42:59;99024.94;;;6.96;100.00
35655;BME280;21773;50.010;19.972;2024-03-06T05:46:20;99032.38;;;7.01;100.00
35655;BME280;21773;50.010;19.972;2024-03-06T05:49:40;99028.69;;;7.02;100.00
35655;BME280;21773;50.010;19.972;2024-03-06T05:53:00;99012.72;;;6.94;100.00
35655;BME280;21773;50.010;19.972;2024-03-06T05:56:21;99031.03;;;7.12;100.00
35655;BME280;21773;50.010;19.972;2024-03-06T05:59:43;99029.53;;;7.09;100.00
35655;BME280;21773;50.010;19.972;2024-03-06T06:02:47;99031.78;;;7.06;100.00
35655;BME280;21773;50.010;19.972;2024-03-06T06:05:50;99030.97;;;7.05;100.00
35655;BME280;21773;50.010;19.972;2024-03-06T06:08:53;99020.66;;;7.02;100.00
35655;BME280;21773;50.010;19.972;2024-03-06T06:11:56;99033.69;;;7.12;100.00
35655;BME280;21773;50.010;19.972;2024-03-06T06:15:01;99038.03;;;7.13;100.00
35655;BME280;21773;50.010;19.972;2024-03-06T06:18:04;99046.34;;;7.18;100.00
35655;BME280;21773;50.010;19.972;2024-03-06T06:21:08;99040.38;;;7.22;100.00
35655;BME280;21773;50.010;19.972;2024-03-06T06:24:11;99043.06;;;7.22;100.00
35655;BME280;21773;50.010;19.972;2024-03-06T06:27:14;99039.41;;;7.02;100.00
35655;BME280;21773;50.010;19.972;2024-03-06T06:30:19;99045.28;;;6.91;100.00
35655;BME280;21773;50.010;19.972;2024-03-06T06:33:22;99049.81;;;6.90;100.00
35655;BME280;21773;50.010;19.972;2024-03-06T06:36:25;99048.38;;;6.88;100.00
35655;BME280;21773;50.010;19.972;2024-03-06T06:39:29;99042.13;;;6.81;100.00
35655;BME280;21773;50.010;19.972;2024-03-06T06:42:32;99045.13;;;6.92;100.00
35655;BME280;21773;50.010;19.972;2024-03-06T06:45:37;99043.78;;;6.82;100.00
35655;BME280;21773;50.010;19.972;2024-03-06T06:48:40;99047.81;;;6.71;100.00
35655;BME280;21773;50.010;19.972;2024-03-06T06:51:44;99049.88;;;6.69;100.00
35655;BME280;21773;50.010;19.972;2024-03-06T06:54:47;99044.50;;;6.69;100.00
35655;BME280;21773;50.010;19.972;2024-03-06T06:57:51;99026.97;;;6.45;100.00
35655;BME280;21773;50.010;19.972;2024-03-06T07:00:55;99051.16;;;6.52;100.00
35655;BME280;21773;50.010;19.972;2024-03-06T07:03:59;99055.09;;;6.56;100.00
35655;BME280;21773;50.010;19.972;2024-03-06T07:07:02;99039.91;;;6.63;100.00
35655;BME280;21773;50.010;19.972;2024-03-06T07:10:06;99041.50;;;6.58;100.00
35655;BME280;21773;50.010;19.972;2024-03-06T07:13:30;99045.19;;;6.78;100.00
35655;BME280;21773;50.010;19.972;2024-03-06T07:19:42;99041.59;;;6.92;100.00
35655;BME280;21773;50.010;19.972;2024-03-06T07:22:46;99044.13;;;7.00;100.00
35655;BME280;21773;50.010;19.972;2024-03-06T07:25:49;99046.19;;;6.98;100.00
35655;BME280;21773;50.010;19.972;2024-03-06T07:28:52;99046.03;;;7.06;100.00
35655;BME280;21773;50.010;19.972;2024-03-06T07:31:57;99046.69;;;7.15;100.00
35655;BME280;21773;50.010;19.972;2024-03-06T07:35:00;99052.13;;;7.21;100.00
35655;BME280;21773;50.010;19.972;2024-03-06T07:38:04;99048.38;;;7.16;100.00
35655;BME280;21773;50.010;19.972;2024-03-06T07:41:07;99048.78;;;7.13;100.00
35655;BME280;21773;50.010;19.972;2024-03-06T07:44:10;99038.47;;;7.16;100.00
35655;BME280;21773;50.010;19.972;2024-03-06T07:47:15;99046.16;;;7.26;100.00
35655;BME280;21773;50.010;19.972;2024-03-06T07:50:18;99057.56;;;7.34;100.00
35655;BME280;21773;50.010;19.972;2024-03-06T07:53:22;99054.09;;;7.40;100.00
35655;BME280;21773;50.010;19.972;2024-03-06T07:56:25;99057.44;;;7.49;100.00
35655;BME280;21773;50.010;19.972;2024-03-06T07:59:28;99060.22;;;7.62;100.00
35655;BME280;21773;50.010;19.972;2024-03-06T08:02:33;99063.09;;;7.67;100.00
35655;BME280;21773;50.010;19.972;2024-03-06T08:05:37;99067.69;;;7.73;100.00
35655;BME280;21773;50.010;19.972;2024-03-06T08:08:41;99064.22;;;7.79;100.00
35655;BME280;21773;50.010;19.972;2024-03-06T08:11:46;99069.41;;;7.88;100.00
35655;BME280;21773;50.010;19.972;2024-03-06T08:14:49;99072.13;;;7.94;100.00
35655;BME280;21773;50.010;19.972;2024-03-06T08:17:53;99069.66;;;7.99;100.00
35655;BME280;21773;50.010;19.972;2024-03-06T08:20:57;99053.75;;;7.98;100.00
35655;BME280;21773;50.010;19.972;2024-03-06T08:24:00;99067.03;;;8.06;100.00
35655;BME280;21773;50.010;19.972;2024-03-06T08:27:03;99053.38;;;8.01;100.00
35655;BME280;21773;50.010;19.972;2024-03-06T08:30:08;99076.94;;;8.12;100.00
35655;BME280;21773;50.010;19.972;2024-03-06T08:33:12;99069.28;;;8.09;100.00
35655;BME280;21773;50.010;19.972;2024-03-06T08:36:16;99081.09;;;8.14;100.00
35655;BME280;21773;50.010;19.972;2024-03-06T08:39:19;99075.72;;;8.14;100.00
35655;BME280;21773;50.010;19.972;2024-03-06T08:42:22;99083.34;;;8.11;100.00
35655;BME280;21773;50.010;19.972;2024-03-06T08:45:25;99075.31;;;8.11;100.00
35655;BME280;21773;50.010;19.972;2024-03-06T08:48:30;99082.50;;;8.04;100.00
35655;BME280;21773;50.010;19.972;2024-03-06T08:51:33;99079.34;;;7.94;100.00
35655;BME280;21773;50.010;19.972;2024-03-06T08:54:36;99083.28;;;7.91;100.00
35655;BME280;21773;50.010;19.972;2024-03-06T08:57:39;99085.72;;;7.86;100.00
35655;BME280;21773;50.010;19.972;2024-03-06T09:00:42;99088.78;;;7.83;100.00
35655;BME280;21773;50.010;19.972;2024-03-06T09:03:47;99096.88;;;7.90;100.00
35655;BME280;21773;50.010;19.972;2024-03-06T09:06:50;99094.63;;;7.93;100.00
35655;BME280;21773;50.010;19.972;2024-03-06T09:09:53;99090.50;;;7.97;100.00
35655;BME280;21773;50.010;19.972;2024-03-06T09:12:56;99092.81;;;8.07;100.00
35655;BME280;21773;50.010;19.972;2024-03-06T09:15:59;99090.34;;;8.12;100.00
35655;BME280;21773;50.010;19.972;2024-03-06T09:19:04;99070.09;;;8.03;100.00
35655;BME280;21773;50.010;19.972;2024-03-06T09:22:07;99087.69;;;8.18;100.00
35655;BME280;21773;50.010;19.972;2024-03-06T09:25:11;99089.78;;;8.23;100.00
35655;BME280;21773;50.010;19.972;2024-03-06T09:28:16;99085.00;;;8.12;100.00
35655;BME280;21773;50.010;19.972;2024-03-06T09:31:20;99093.88;;;8.12;100.00
35655;BME280;21773;50.010;19.972;2024-03-06T09:34:24;99088.50;;;8.12;100.00
35655;BME280;21773;50.010;19.972;2024-03-06T09:37:29;99087.66;;;8.12;100.00
35655;BME280;21773;50.010;19.972;2024-03-06T09:40:32;99085.41;;;8.09;100.00
35655;BME280;21773;50.010;19.972;2024-03-06T09:43:35;99091.41;;;8.17;100.00
35655;BME280;21773;50.010;19.972;2024-03-06T09:46:40;99085.63;;;8.14;100.00
35655;BME280;21773;50.010;19.972;2024-03-06T09:49:47;99083.78;;;8.14;100.00
35655;BME280;21773;50.010;19.972;2024-03-06T09:52:51;99092.06;;;8.19;100.00
35655;BME280;21773;50.010;19.972;2024-03-06T09:55:56;99077.00;;;8.25;100.00
35655;BME280;21773;50.010;19.972;2024-03-06T09:58:59;99086.94;;;8.31;100.00
35655;BME280;21773;50.010;19.972;2024-03-06T10:02:18;99072.00;;;8.22;100.00
35655;BME280;21773;50.010;19.972;2024-03-06T10:05:26;99090.69;;;8.37;100.00
35655;BME280;21773;50.010;19.972;2024-03-06T10:08:33;99091.28;;;8.32;100.00
35655;BME280;21773;50.010;19.972;2024-03-06T10:11:39;99096.06;;;8.37;100.00
35655;BME280;21773;50.010;19.972;2024-03-06T10:14:49;99090.69;;;8.37;100.00
35655;BME280;21773;50.010;19.972;2024-03-06T10:17:52;99095.03;;;8.38;100.00
35655;BME280;21773;50.010;19.972;2024-03-06T10:20:57;99091.50;;;8.37;100.00
35655;BME280;21773;50.010;19.972;2024-03-06T10:24:00;99095.66;;;8.46;100.00
35655;BME280;21773;50.010;19.972;2024-03-06T10:27:03;99098.78;;;8.50;100.00
35655;BME280;21773;50.010;19.972;2024-03-06T10:30:08;99093.41;;;8.50;100.00
35655;BME280;21773;50.010;19.972;2024-03-06T10:33:14;99089.28;;;8.54;100.00
35655;BME280;21773;50.010;19.972;2024-03-06T10:36:19;99093.41;;;8.50;100.00
35655;BME280;21773;50.010;19.972;2024-03-06T10:39:23;99092.19;;;8.59;100.00
35655;BME280;21773;50.010;19.972;2024-03-06T10:42:28;99085.19;;;8.64;100.00
35655;BME280;21773;50.010;19.972;2024-03-06T10:45:40;99089.09;;;8.62;100.00
35655;BME280;21773;50.010;19.972;2024-03-06T10:48:44;99084.13;;;8.65;100.00
35655;BME280;21773;50.010;19.972;2024-03-06T10:55:30;99083.94;;;8.67;100.00
35655;BME280;21773;50.010;19.972;2024-03-06T11:02:46;99079.59;;;8.73;100.00
35655;BME280;21773;50.010;19.972;2024-03-06T11:06:12;99086.00;;;8.72;100.00
35655;BME280;21773;50.010;19.972;2024-03-06T11:09:15;99084.97;;;8.73;100.00
35655;BME280;21773;50.010;19.972;2024-03-06T11:16:05;99086.41;;;8.75;100.00
35655;BME280;21773;50.010;19.972;2024-03-06T11:19:10;99080.63;;;8.85;100.00
35655;BME280;21773;50.010;19.972;2024-03-06T11:26:02;99077.13;;;8.91;100.00
35655;BME280;21773;50.010;19.972;2024-03-06T11:29:08;99079.59;;;8.86;100.00
35655;BME280;21773;50.010;19.972;2024-03-06T11:36:14;99069.25;;;8.96;100.00
35655;BME280;21773;50.010;19.972;2024-03-06T11:39:18;99071.16;;;8.89;100.00
35655;BME280;21773;50.010;19.972;2024-03-06T11:42:32;99050.84;;;8.66;100.00
35655;BME280;21773;50.010;19.972;2024-03-06T11:45:44;99071.75;;;8.78;100.00
35655;BME280;21773;50.010;19.972;2024-03-06T11:48:52;99069.88;;;8.72;100.00
35655;BME280;21773;50.010;19.972;2024-03-06T11:52:25;99063.47;;;8.86;100.00
35655;BME280;21773;50.010;19.972;2024-03-06T11:55:30;99069.66;;;8.80;100.00
35655;BME280;21773;50.010;19.972;2024-03-06T11:58:37;99058.31;;;8.78;100.00
35655;BME280;21773;50.010;19.972;2024-03-06T12:01:41;99059.56;;;8.88;100.00
35655;BME280;21773;50.010;19.972;2024-03-06T12:04:44;99054.81;;;8.84;100.00
35655;BME280;21773;50.010;19.972;2024-03-06T12:07:49;99058.31;;;8.84;100.00
35655;BME280;21773;50.010;19.972;2024-03-06T12:10:53;99061.00;;;8.84;100.00
35655;BME280;21773;50.010;19.972;2024-03-06T12:13:57;99054.38;;;8.74;100.00
35655;BME280;21773;50.010;19.972;2024-03-06T12:17:01;99061.81;;;8.72;100.00
35655;BME280;21773;50.010;19.972;2024-03-06T12:20:10;99055.59;;;8.71;100.00
35655;BME280;21773;50.010;19.972;2024-03-06T12:23:21;99064.09;;;8.81;100.00
35655;BME280;21773;50.010;19.972;2024-03-06T12:26:25;99059.53;;;8.95;100.00
35655;BME280;21773;50.010;19.972;2024-03-06T12:29:29;99042.81;;;8.93;100.00
35655;BME280;21773;50.010;19.972;2024-03-06T12:32:32;99053.53;;;8.99;100.00
35655;BME280;21773;50.010;19.972;2024-03-06T12:35:37;99052.72;;;8.92;100.00
35655;BME280;21773;50.010;19.972;2024-03-06T12:38:41;99047.13;;;8.87;100.00
35655;BME280;21773;50.010;19.972;2024-03-06T12:41:45;99052.94;;;8.84;100.00
35655;BME280;21773;50.010;19.972;2024-03-06T12:44:48;99049.19;;;8.85;100.00
35655;BME280;21773;50.010;19.972;2024-03-06T12:47:51;99053.75;;;8.85;100.00
35655;BME280;21773;50.010;19.972;2024-03-06T12:50:55;99009.94;;;8.64;100.00
35655;BME280;21773;50.010;19.972;2024-03-06T12:54:08;99058.72;;;8.94;100.00
35655;BME280;21773;50.010;19.972;2024-03-06T12:57:11;99058.91;;;8.99;100.00
35655;BME280;21773;50.010;19.972;2024-03-06T13:00:15;99058.50;;;8.96;100.00
35655;BME280;21773;50.010;19.972;2024-03-06T13:03:18;99050.44;;;8.96;100.00
35655;BME280;21773;50.010;19.972;2024-03-06T13:06:21;99051.47;;;8.95;100.00
35655;BME280;21773;50.010;19.972;2024-03-06T13:09:26;99059.34;;;8.96;100.00
35655;BME280;21773;50.010;19.972;2024-03-06T13:12:29;99061.00;;;8.97;100.00
35655;BME280;21773;50.010;19.972;2024-03-06T13:15:32;99057.06;;;8.93;100.00
35655;BME280;21773;50.010;19.972;2024-03-06T13:18:37;99052.31;;;8.89;100.00
35655;BME280;21773;50.010;19.972;2024-03-06T13:21:40;99060.16;;;8.90;100.00
35655;BME280;21773;50.010;19.972;2024-03-06T13:24:45;99061.19;;;8.96;100.00
35655;BME280;21773;50.010;19.972;2024-03-06T13:27:51;99053.94;;;8.90;100.00
35655;BME280;21773;50.010;19.972;2024-03-06T13:30:55;99065.56;;;8.84;100.00
35655;BME280;21773;50.010;19.972;2024-03-06T13:34:00;99050.44;;;8.83;100.00
35655;BME280;21773;50.010;19.972;2024-03-06T13:37:04;99039.91;;;8.88;100.00
35655;BME280;21773;50.010;19.972;2024-03-06T13:40:13;99040.50;;;8.90;100.00
35655;BME280;21773;50.010;19.972;2024-03-06T13:43:16;99045.47;;;8.86;100.00
35655;BME280;21773;50.010;19.972;2024-03-06T13:46:24;99038.44;;;8.85;100.00
35655;BME280;21773;50.010;19.972;2024-03-06T13:49:35;99049.44;;;8.84;100.00
35655;BME280;21773;50.010;19.972;2024-03-06T13:52:39;99039.91;;;8.81;100.00
35655;BME280;21773;50.010;19.972;2024-03-06T13:55:44;99045.28;;;8.68;100.00
35655;BME280;21773;50.010;19.972;2024-03-06T13:58:47;99048.16;;;8.66;100.00
35655;BME280;21773;50.010;19.972;2024-03-06T14:01:50;99051.88;;;8.65;100.00
35655;BME280;21773;50.010;19.972;2024-03-06T14:04:53;99049.19;;;8.65;100.00
35655;BME280;21773;50.010;19.972;2024-03-06T14:07:56;99044.84;;;8.71;100.00
35655;BME280;21773;50.010;19.972;2024-03-06T14:11:01;99041.16;;;8.79;100.00
35655;BME280;21773;50.010;19.972;2024-03-06T14:14:07;99040.53;;;8.83;100.00
35655;BME280;21773;50.010;19.972;2024-03-06T14:17:10;99045.88;;;8.90;100.00
35655;BME280;21773;50.010;19.972;2024-03-06T14:20:14;99027.50;;;8.87;100.00
35655;BME280;21773;50.010;19.972;2024-03-06T14:23:18;99015.72;;;8.75;100.00
35655;BME280;21773;50.010;19.972;2024-03-06T14:26:24;99053.31;;;8.94;100.00
35655;BME280;21773;50.010;19.972;2024-03-06T14:29:29;99047.97;;;8.88;100.00
35655;BME280;21773;50.010;19.972;2024-03-06T14:32:33;99046.31;;;8.87;100.00
35655;BME280;21773;50.010;19.972;2024-03-06T14:35:37;99040.13;;;8.93;100.00
35655;BME280;21773;50.010;19.972;2024-03-06T14:38:40;99043.81;;;8.92;100.00
35655;BME280;21773;50.010;19.972;2024-03-06T14:41:45;99045.69;;;8.91;100.00
35655;BME280;21773;50.010;19.972;2024-03-06T14:44:48;99049.00;;;8.93;100.00
35655;BME280;21773;50.010;19.972;2024-03-06T14:47:52;99038.03;;;8.82;100.00
35655;BME280;21773;50.010;19.972;2024-03-06T14:50:55;99041.78;;;8.94;100.00
35655;BME280;21773;50.010;19.972;2024-03-06T14:53:58;99044.84;;;8.91;100.00
35655;BME280;21773;50.010;19.972;2024-03-06T14:57:03;99049.22;;;8.92;100.00
35655;BME280;21773;50.010;19.972;2024-03-06T15:00:08;99050.63;;;8.94;100.00
35655;BME280;21773;50.010;19.972;2024-03-06T15:03:13;99045.06;;;8.96;100.00
35655;BME280;21773;50.010;19.972;2024-03-06T15:06:16;99051.91;;;8.92;100.00
35655;BME280;21773;50.010;19.972;2024-03-06T15:09:20;99048.97;;;8.80;100.00
35655;BME280;21773;50.010;19.972;2024-03-06T15:12:25;99026.66;;;8.66;100.00
35655;BME280;21773;50.010;19.972;2024-03-06T15:15:28;99047.13;;;8.81;100.00
35655;BME280;21773;50.010;19.972;2024-03-06T15:18:32;99046.31;;;8.74;100.00
35655;BME280;21773;50.010;19.972;2024-03-06T15:21:36;99049.81;;;8.81;100.00
35655;BME280;21773;50.010;19.972;2024-03-06T15:24:39;99051.69;;;8.80;100.00
35655;BME280;21773;50.010;19.972;2024-03-06T15:27:43;99055.81;;;8.83;100.00
35655;BME280;21773;50.010;19.972;2024-03-06T15:30:48;99054.38;;;8.87;100.00
35655;BME280;21773;50.010;19.972;2024-03-06T15:33:57;99043.19;;;8.77;100.00
35655;BME280;21773;50.010;19.972;2024-03-06T15:37:00;99061.81;;;8.85;100.00
35655;BME280;21773;50.010;19.972;2024-03-06T15:40:04;99063.28;;;8.87;100.00
35655;BME280;21773;50.010;19.972;2024-03-06T15:43:09;99056.03;;;8.81;100.00
35655;BME280;21773;50.010;19.972;2024-03-06T15:46:12;99055.19;;;8.81;100.00
35655;BME280;21773;50.010;19.972;2024-03-06T15:49:20;99056.03;;;8.81;100.00
35655;BME280;21773;50.010;19.972;2024-03-06T15:52:26;99032.66;;;8.68;100.00
35655;BME280;21773;50.010;19.972;2024-03-06T15:55:29;99052.94;;;8.84;100.00
35655;BME280;21773;50.010;19.972;2024-03-06T15:58:35;99059.75;;;8.87;100.00
35655;BME280;21773;50.010;19.972;2024-03-06T16:01:39;99052.53;;;8.87;100.00
35655;BME280;21773;50.010;19.972;2024-03-06T16:04:42;99060.78;;;8.86;100.00
35655;BME280;21773;50.010;19.972;2024-03-06T16:07:45;99053.75;;;8.85;100.00
35655;BME280;21773;50.010;19.972;2024-03-06T16:11:00;99056.66;;;8.83;100.00
35655;BME280;21773;50.010;19.972;2024-03-06T16:14:05;99060.59;;;8.87;100.00
35655;BME280;21773;50.010;19.972;2024-03-06T16:17:08;99062.22;;;8.95;100.00
35655;BME280;21773;50.010;19.972;2024-03-06T16:20:11;99063.50;;;8.99;100.00
35655;BME280;21773;50.010;19.972;2024-03-06T16:23:14;99052.31;;;8.95;100.00
35655;BME280;21773;50.010;19.972;2024-03-06T16:26:18;99055.00;;;8.95;100.00
35655;BME280;21773;50.010;19.972;2024-03-06T16:29:23;99069.06;;;9.10;100.00
35655;BME280;21773;50.010;19.972;2024-03-06T16:32:26;99069.25;;;9.16;100.00
35655;BME280;21773;50.010;19.972;2024-03-06T16:35:30;99062.00;;;9.09;100.00